sensor_id;sensor_type;location;lat;lon;timestamp;temperature;humidity
11246;DHT22;59870;50.106;8.580;2024-02-23T03:18:11;11.10;91.20
11246;DHT22;59870;50.106;8.580;2024-02-23T03:20:42;10.80;90.40
11246;DHT22;59870;50.106;8.580;2024-02-23T03:23:16;10.90;90.60
11246;DHT22;59870;50.106;8.580;2024-02-23T03:25:47;11.20;90.70
11246;DHT22;59870;50.106;8.580;2024-02-23T03:28:21;11.20;90.30
11246;DHT22;59870;50.106;8.580;2024-02-23T03:35:05;10.90;90.40
11246;DHT22;59870;50.106;8.580;2024-02-23T03:37:36;11.00;89.90
11246;DHT22;59870;50.106;8.580;2024-02-23T03:40:07;11.10;89.10
11246;DHT22;59870;50.106;8.580;2024-02-23T03:42:39;10.80;90.00
11246;DHT22;59870;50.106;8.580;2024-02-23T03:45:10;11.10;89.90
11246;DHT22;59870;50.106;8.580;2024-02-23T03:47:41;11.00;90.60
11246;DHT22;59870;50.106;8.580;2024-02-23T03:50:15;10.80;90.10
11246;DHT22;59870;50.106;8.580;2024-02-23T03:52:46;11.20;90.40
11246;DHT22;59870;50.106;8.580;2024-02-23T03:55:17;11.40;90.50
11246;DHT22;59870;50.106;8.580;2024-02-23T03:57:49;11.30;90.20
11246;DHT22;59870;50.106;8.580;2024-02-23T04:00:19;10.80;90.20
11246;DHT22;59870;50.106;8.580;2024-02-23T04:02:51;11.10;90.40
11246;DHT22;59870;50.106;8.580;2024-02-23T04:05:27;11.30;90.70
11246;DHT22;59870;50.106;8.580;2024-02-23T04:07:56;10.70;90.20
11246;DHT22;59870;50.106;8.580;2024-02-23T04:10:26;10.80;90.10
11246;DHT22;59870;50.106;8.580;2024-02-23T04:12:58;11.00;90.50
11246;DHT22;59870;50.106;8.580;2024-02-23T06:31:42;10.00;92.10
11246;DHT22;59870;50.106;8.580;2024-02-23T06:50:56;10.00;92.20
11246;DHT22;59870;50.106;8.580;2024-02-23T06:53:26;10.30;92.20
11246;DHT22;59870;50.106;8.580;2024-02-23T07:08:37;10.00;92.20
11246;DHT22;59870;50.106;8.580;2024-02-23T07:11:06;10.00;91.70
11246;DHT22;59870;50.106;8.580;2024-02-23T07:13:36;10.30;91.80
11246;DHT22;59870;50.106;8.580;2024-02-23T07:16:06;10.30;91.80
11246;DHT22;59870;50.106;8.580;2024-02-23T07:19:00;10.00;91.50
11246;DHT22;59870;50.106;8.580;2024-02-23T07:21:30;9.80;92.60
11246;DHT22;59870;50.106;8.580;2024-02-23T07:24:00;10.10;91.70
11246;DHT22;59870;50.106;8.580;2024-02-23T07:26:29;10.10;91.50
11246;DHT22;59870;50.106;8.580;2024-02-23T07:29:28;10.40;91.80
11246;DHT22;59870;50.106;8.580;2024-02-23T07:44:14;10.30;92.10
11246;DHT22;59870;50.106;8.580;2024-02-23T07:46:44;10.70;91.90
11246;DHT22;59870;50.106;8.580;2024-02-23T07:49:13;10.70;91.70
11246;DHT22;59870;50.106;8.580;2024-02-23T08:00:52;10.80;91.00
11246;DHT22;59870;50.106;8.580;2024-02-23T08:03:22;10.80;90.80
11246;DHT22;59870;50.106;8.580;2024-02-23T08:05:55;11.20;90.70
11246;DHT22;59870;50.106;8.580;2024-02-23T08:08:29;10.80;90.10
11246;DHT22;59870;50.106;8.580;2024-02-23T08:11:14;11.20;90.50
11246;DHT22;59870;50.106;8.580;2024-02-23T08:16:50;10.90;90.40
11246;DHT22;59870;50.106;8.580;2024-02-23T08:19:19;11.30;90.20
11246;DHT22;59870;50.106;8.580;2024-02-23T08:21:49;10.70;89.20
11246;DHT22;59870;50.106;8.580;2024-02-23T08:24:18;11.40;90.00
11246;DHT22;59870;50.106;8.580;2024-02-23T08:26:47;11.40;89.50
11246;DHT22;59870;50.106;8.580;2024-02-23T08:32:21;11.20;90.00
11246;DHT22;59870;50.106;8.580;2024-02-23T08:47:32;11.30;88.40
11246;DHT22;59870;50.106;8.580;2024-02-23T08:50:07;11.30;88.10
11246;DHT22;59870;50.106;8.580;2024-02-23T08:52:38;11.20;89.90
11246;DHT22;59870;50.106;8.580;2024-02-23T08:55:08;11.20;89.40
11246;DHT22;59870;50.106;8.580;2024-02-23T08:57:40;11.30;89.00
11246;DHT22;59870;50.106;8.580;2024-02-23T09:00:10;11.30;89.20
11246;DHT22;59870;50.106;8.580;2024-02-23T09:02:44;11.30;90.00
11246;DHT22;59870;50.106;8.580;2024-02-23T09:05:14;11.40;89.50
11246;DHT22;59870;50.106;8.580;2024-02-23T09:10:56;11.40;90.00
11246;DHT22;59870;50.106;8.580;2024-02-23T09:13:52;11.70;89.00
11246;DHT22;59870;50.106;8.580;2024-02-23T09:16:21;11.50;89.50
11246;DHT22;59870;50.106;8.580;2024-02-23T09:18:55;11.80;89.80
11246;DHT22;59870;50.106;8.580;2024-02-23T09:21:24;11.50;88.50
11246;DHT22;59870;50.106;8.580;2024-02-23T09:23:52;11.50;88.60
11246;DHT22;59870;50.106;8.580;2024-02-23T09:26:21;11.40;89.30
11246;DHT22;59870;50.106;8.580;2024-02-23T09:28:51;11.40;89.00
11246;DHT22;59870;50.106;8.580;2024-02-23T09:31:51;11.40;89.10
11246;DHT22;59870;50.106;8.580;2024-02-23T09:46:37;11.50;90.00
11246;DHT22;59870;50.106;8.580;2024-02-23T09:49:07;11.60;89.50
11246;DHT22;59870;50.106;8.580;2024-02-23T10:07:45;12.20;88.50
11246;DHT22;59870;50.106;8.580;2024-02-23T10:10:24;12.70;88.20
11246;DHT22;59870;50.106;8.580;2024-02-23T10:12:55;12.40;87.40
11246;DHT22;59870;50.106;8.580;2024-02-23T10:15:26;12.80;87.30
11246;DHT22;59870;50.106;8.580;2024-02-23T10:17:53;12.70;87.60
11246;DHT22;59870;50.106;8.580;2024-02-23T10:20:22;12.70;86.20
11246;DHT22;59870;50.106;8.580;2024-02-23T10:22:53;12.70;84.90
11246;DHT22;59870;50.106;8.580;2024-02-23T10:25:22;13.30;85.50
11246;DHT22;59870;50.106;8.580;2024-02-23T10:27:51;12.80;85.60
11246;DHT22;59870;50.106;8.580;2024-02-23T10:30:19;13.10;85.30
11246;DHT22;59870;50.106;8.580;2024-02-23T10:32:50;12.80;85.60
11246;DHT22;59870;50.106;8.580;2024-02-23T10:35:23;12.90;85.50
11246;DHT22;59870;50.106;8.580;2024-02-23T10:37:55;12.90;85.10
11246;DHT22;59870;50.106;8.580;2024-02-23T10:40:26;13.30;84.60
11246;DHT22;59870;50.106;8.580;2024-02-23T10:43:02;12.70;83.70
11246;DHT22;59870;50.106;8.580;2024-02-23T10:45:32;13.10;84.60
11246;DHT22;59870;50.106;8.580;2024-02-23T10:48:02;13.10;85.00
11246;DHT22;59870;50.106;8.580;2024-02-23T10:50:35;12.80;84.40
11246;DHT22;59870;50.106;8.580;2024-02-23T10:53:07;13.20;84.80
11246;DHT22;59870;50.106;8.580;2024-02-23T10:55:37;13.50;84.70
11246;DHT22;59870;50.106;8.580;2024-02-23T10:58:08;13.60;84.30
11246;DHT22;59870;50.106;8.580;2024-02-23T11:00:44;13.20;84.40
11246;DHT22;59870;50.106;8.580;2024-02-23T11:54:25;13.60;86.30
11246;DHT22;59870;50.106;8.580;2024-02-23T11:57:00;13.70;85.50
11246;DHT22;59870;50.106;8.580;2024-02-23T12:17:14;13.70;85.10
11246;DHT22;59870;50.106;8.580;2024-02-23T12:19:47;13.80;85.50
11246;DHT22;59870;50.106;8.580;2024-02-23T12:22:25;13.80;85.30
11246;DHT22;59870;50.106;8.580;2024-02-23T12:24:58;13.70;84.30
11246;DHT22;59870;50.106;8.580;2024-02-23T12:27:34;13.80;82.90
11246;DHT22;59870;50.106;8.580;2024-02-23T12:30:29;14.00;83.70
11246;DHT22;59870;50.106;8.580;2024-02-23T12:45:57;13.70;82.70
11246;DHT22;59870;50.106;8.580;2024-02-23T12:48:31;13.80;81.00
11246;DHT22;59870;50.106;8.580;2024-02-23T12:51:04;14.10;81.80
11246;DHT22;59870;50.106;8.580;2024-02-23T12:53:38;13.80;81.70
11246;DHT22;59870;50.106;8.580;2024-02-23T12:56:09;13.80;81.10
11246;DHT22;59870;50.106;8.580;2024-02-23T12:59:11;14.10;81.20
11246;DHT22;59870;50.106;8.580;2024-02-23T13:08:01;13.70;83.20
11246;DHT22;59870;50.106;8.580;2024-02-23T13:10:30;13.70;82.70
11246;DHT22;59870;50.106;8.580;2024-02-23T13:13:01;14.00;82.20
11246;DHT22;59870;50.106;8.580;2024-02-23T13:15:32;13.70;81.20
11246;DHT22;59870;50.106;8.580;2024-02-23T13:18:07;14.00;82.40
11246;DHT22;59870;50.106;8.580;2024-02-23T13:20:40;13.80;81.90
11246;DHT22;59870;50.106;8.580;2024-02-23T13:23:13;13.80;81.80
11246;DHT22;59870;50.106;8.580;2024-02-23T13:25:45;13.90;80.00
11246;DHT22;59870;50.106;8.580;2024-02-23T13:28:14;14.20;79.60
11246;DHT22;59870;50.106;8.580;2024-02-23T13:30:44;13.90;79.10
11246;DHT22;59870;50.106;8.580;2024-02-23T13:33:13;13.90;79.50
11246;DHT22;59870;50.106;8.580;2024-02-23T13:38:58;14.00;77.40
11246;DHT22;59870;50.106;8.580;2024-02-23T13:44:37;14.00;77.90
11246;DHT22;59870;50.106;8.580;2024-02-23T13:47:13;14.10;78.20
11246;DHT22;59870;50.106;8.580;2024-02-23T13:49:42;14.00;77.40
11246;DHT22;59870;50.106;8.580;2024-02-23T13:52:17;14.40;77.60
11246;DHT22;59870;50.106;8.580;2024-02-23T13:55:17;14.10;77.10
11246;DHT22;59870;50.106;8.580;2024-02-23T13:57:48;14.00;78.20
11246;DHT22;59870;50.106;8.580;2024-02-23T14:00:20;14.00;76.10
11246;DHT22;59870;50.106;8.580;2024-02-23T14:02:50;14.00;75.70
11246;DHT22;59870;50.106;8.580;2024-02-23T14:05:23;14.00;75.30
11246;DHT22;59870;50.106;8.580;2024-02-23T14:07:53;14.00;75.90
11246;DHT22;59870;50.106;8.580;2024-02-23T14:10:28;14.10;75.60
11246;DHT22;59870;50.106;8.580;2024-02-23T14:13:25;14.40;77.30
11246;DHT22;59870;50.106;8.580;2024-02-23T14:19:29;14.20;77.00
11246;DHT22;59870;50.106;8.580;2024-02-23T14:58:15;14.50;74.00
11246;DHT22;59870;50.106;8.580;2024-02-23T15:00:45;14.50;72.00
11246;DHT22;59870;50.106;8.580;2024-02-23T15:11:06;14.60;76.40
11246;DHT22;59870;50.106;8.580;2024-02-23T15:13:38;14.40;77.30
11246;DHT22;59870;50.106;8.580;2024-02-23T15:16:10;14.40;77.70
11246;DHT22;59870;50.106;8.580;2024-02-23T15:22:35;14.30;78.00
11246;DHT22;59870;50.106;8.580;2024-02-23T15:25:11;14.10;79.00
11246;DHT22;59870;50.106;8.580;2024-02-23T16:48:44;12.90;83.80
11246;DHT22;59870;50.106;8.580;2024-02-23T19:58:28;12.40;85.90
11246;DHT22;59870;50.106;8.580;2024-02-23T20:05:53;12.30;86.40
11246;DHT22;59870;50.106;8.580;2024-02-23T20:09:26;12.30;86.40
11246;DHT22;59870;50.106;8.580;2024-02-23T21:08:19;11.70;89.40
11246;DHT22;59870;50.106;8.580;2024-02-23T21:11:06;12.00;89.20
11246;DHT22;59870;50.106;8.580;2024-02-23T21:13:48;11.60;88.70
11246;DHT22;59870;50.106;8.580;2024-02-23T21:16:33;11.60;89.10
11246;DHT22;59870;50.106;8.580;2024-02-23T21:43:05;11.20;90.00
11246;DHT22;59870;50.106;8.580;2024-02-23T21:45:46;11.10;89.60
11246;DHT22;59870;50.106;8.580;2024-02-23T21:48:32;11.10;90.00
11246;DHT22;59870;50.106;8.580;2024-02-23T21:51:13;11.20;90.20
11246;DHT22;59870;50.106;8.580;2024-02-23T21:53:52;11.00;90.20
11246;DHT22;59870;50.106;8.580;2024-02-23T21:57:14;11.00;90.20
11246;DHT22;59870;50.106;8.580;2024-02-23T22:00:40;10.90;90.40
11246;DHT22;59870;50.106;8.580;2024-02-23T22:09:33;10.80;90.30
11246;DHT22;59870;50.106;8.580;2024-02-23T22:12:20;10.50;90.20
11246;DHT22;59870;50.106;8.580;2024-02-23T22:15:47;10.90;90.40
11246;DHT22;59870;50.106;8.580;2024-02-23T22:18:51;10.60;90.30
11246;DHT22;59870;50.106;8.580;2024-02-23T22:29:44;10.60;90.60
11246;DHT22;59870;50.106;8.580;2024-02-23T22:33:22;10.40;90.60
11246;DHT22;59870;50.106;8.580;2024-02-23T22:36:22;10.30;90.60
11246;DHT22;59870;50.106;8.580;2024-02-23T22:39:56;10.30;90.50
11246;DHT22;59870;50.106;8.580;2024-02-23T22:43:11;10.20;90.70
11246;DHT22;59870;50.106;8.580;2024-02-23T23:05:24;9.90;91.50
11246;DHT22;59870;50.106;8.580;2024-02-23T23:08:14;10.00;90.80
11246;DHT22;59870;50.106;8.580;2024-02-23T23:11:04;9.70;91.40
11246;DHT22;59870;50.106;8.580;2024-02-23T23:14:30;9.40;91.60
11246;DHT22;59870;50.106;8.580;2024-02-23T23:18:19;9.70;91.80
11246;DHT22;59870;50.106;8.580;2024-02-23T23:54:33;9.50;91.90
11246;DHT22;59870;50.106;8.580;2024-02-23T23:57:50;9.80;92.00
